createdAt,value
2018-06-13T00:00:38.420Z,2.20
2018-06-13T00:03:07.141Z,2.95
2018-06-13T00:05:35.816Z,2.20
2018-06-13T00:08:04.697Z,2.58
2018-06-13T00:10:33.343Z,2.77
2018-06-13T00:13:01.919Z,2.87
2018-06-13T00:15:30.521Z,2.98
2018-06-13T00:17:59.164Z,2.62
2018-06-13T00:20:27.861Z,2.50
2018-06-13T00:22:56.442Z,2.70
2018-06-13T00:25:25.167Z,3.17
2018-06-13T00:27:53.888Z,3.12
2018-06-13T00:30:22.442Z,2.67
2018-06-13T00:32:51.095Z,2.70
2018-06-13T00:35:19.641Z,2.80
2018-06-13T00:37:48.222Z,2.47
2018-06-13T00:40:16.821Z,2.90
2018-06-13T00:42:45.428Z,2.87
2018-06-13T00:45:14.078Z,2.90
2018-06-13T00:47:42.676Z,3.22
2018-06-13T00:50:11.292Z,3.30
2018-06-13T00:52:39.998Z,3.85
2018-06-13T00:55:08.592Z,3.35
2018-06-13T00:57:37.189Z,3.65
2018-06-13T01:00:05.879Z,2.55
2018-06-13T01:02:34.495Z,2.50
2018-06-13T01:05:03.123Z,2.55
2018-06-13T01:07:31.679Z,3.22
2018-06-13T01:10:00.274Z,3.10
2018-06-13T01:12:28.547Z,3.55
2018-06-13T01:14:57.210Z,3.20
2018-06-13T01:17:25.805Z,2.98
2018-06-13T01:19:54.527Z,3.10
2018-06-13T01:22:23.138Z,2.83
2018-06-13T01:24:51.729Z,2.80
2018-06-13T01:27:20.386Z,3.15
2018-06-13T01:29:48.963Z,2.47
2018-06-13T01:32:17.597Z,3.40
2018-06-13T01:34:46.178Z,3.05
2018-06-13T01:37:14.764Z,2.47
2018-06-13T01:39:44.169Z,2.77
2018-06-13T01:42:12.805Z,3.80
2018-06-13T01:44:41.438Z,2.85
2018-06-13T01:47:10.037Z,3.25
2018-06-13T01:49:38.658Z,3.10
2018-06-13T01:52:08.037Z,3.30
2018-06-13T01:54:36.764Z,3.90
2018-06-13T01:57:05.385Z,3.35
2018-06-13T01:59:33.998Z,3.55
2018-06-13T02:02:02.949Z,3.80
2018-06-13T02:04:31.612Z,3.45
2018-06-13T02:07:00.827Z,3.25
2018-06-13T02:09:29.392Z,3.80
2018-06-13T02:11:57.996Z,3.17
2018-06-13T02:14:26.580Z,3.98
2018-06-13T02:16:55.179Z,2.58
2018-06-13T02:19:23.736Z,3.52
2018-06-13T02:21:52.406Z,3.40
2018-06-13T02:24:20.973Z,4.25
2018-06-13T02:26:49.584Z,3.75
2018-06-13T02:29:18.158Z,3.02
2018-06-13T02:31:46.772Z,3.85
2018-06-13T02:34:15.345Z,2.37
2018-06-13T02:36:43.915Z,3.60
2018-06-13T02:39:12.577Z,3.00
2018-06-13T02:41:40.887Z,2.77
2018-06-13T02:44:09.452Z,3.58
2018-06-13T02:46:38.010Z,3.83
2018-06-13T02:49:06.786Z,3.40
2018-06-13T02:51:35.379Z,3.10
2018-06-13T02:54:04.043Z,2.80
2018-06-13T02:56:32.758Z,3.83
2018-06-13T02:59:01.707Z,2.60
2018-06-13T03:01:30.727Z,4.25
2018-06-13T03:03:59.384Z,2.90
2018-06-13T03:06:28.047Z,3.65
2018-06-13T03:08:56.656Z,3.30
2018-06-13T03:11:25.269Z,3.70
2018-06-13T03:13:53.888Z,3.55
2018-06-13T03:16:22.456Z,3.65
2018-06-13T03:18:51.008Z,3.37
2018-06-13T03:21:19.598Z,4.65
2018-06-13T03:23:48.226Z,3.50
2018-06-13T03:26:16.821Z,3.50
2018-06-13T03:28:45.411Z,4.17
2018-06-13T03:31:14.034Z,3.72
2018-06-13T03:33:42.633Z,4.42
2018-06-13T03:36:11.201Z,3.83
2018-06-13T03:38:39.846Z,4.47
2018-06-13T03:41:09.265Z,3.52
2018-06-13T03:43:37.868Z,5.42
2018-06-13T03:46:06.475Z,3.83
2018-06-13T03:48:35.158Z,4.20
2018-06-13T03:51:03.786Z,4.55
2018-06-13T03:53:32.399Z,4.37
2018-06-13T03:56:01.032Z,4.45
2018-06-13T03:58:29.664Z,4.75
2018-06-13T04:00:58.257Z,4.55
2018-06-13T04:03:26.959Z,5.03
2018-06-13T04:05:55.561Z,4.33
2018-06-13T04:08:24.141Z,4.75
2018-06-13T04:10:52.730Z,4.75
2018-06-13T04:13:21.383Z,4.35
2018-06-13T04:15:49.983Z,5.22
2018-06-13T04:18:18.571Z,4.90
2018-06-13T04:20:47.267Z,4.65
2018-06-13T04:23:15.853Z,4.90
2018-06-13T04:25:45.420Z,3.70
2018-06-13T04:28:14.315Z,3.70
2018-06-13T04:30:42.953Z,3.95
2018-06-13T04:33:11.626Z,3.30
2018-06-13T04:35:40.229Z,3.08
2018-06-13T04:38:08.822Z,5.60
2018-06-13T04:40:37.406Z,3.60
2018-06-13T04:43:06.100Z,3.55
2018-06-13T04:45:34.709Z,3.60
2018-06-13T04:48:03.293Z,2.98
2018-06-13T04:50:31.902Z,3.77
2018-06-13T04:53:00.532Z,3.30
2018-06-13T04:55:29.126Z,2.90
2018-06-13T04:57:57.808Z,3.00
2018-06-13T05:00:26.448Z,4.25
2018-06-13T05:02:55.033Z,3.62
2018-06-13T05:05:23.820Z,3.37
2018-06-13T05:07:52.439Z,3.20
2018-06-13T05:10:21.103Z,3.22
2018-06-13T05:12:49.703Z,3.47
2018-06-13T05:15:18.306Z,3.08
2018-06-13T05:17:46.928Z,3.05
2018-06-13T05:20:15.564Z,3.50
2018-06-13T05:22:44.221Z,3.52
2018-06-13T05:25:16.260Z,3.10
2018-06-13T05:27:44.942Z,3.65
2018-06-13T05:30:13.692Z,2.70
2018-06-13T05:32:42.372Z,3.77
2018-06-13T05:35:11.013Z,4.50
2018-06-13T05:37:39.687Z,3.17
2018-06-13T05:40:08.328Z,2.67
2018-06-13T05:42:37.143Z,2.90
2018-06-13T05:45:05.863Z,4.12
2018-06-13T05:47:34.486Z,3.50
2018-06-13T05:50:03.111Z,4.53
2018-06-13T05:52:31.758Z,3.62
2018-06-13T05:55:01.075Z,4.40
2018-06-13T05:57:29.796Z,4.00
2018-06-13T05:59:58.469Z,3.87
2018-06-13T06:02:27.240Z,4.92
2018-06-13T06:04:55.864Z,4.85
2018-06-13T06:07:24.468Z,3.90
2018-06-13T06:09:53.095Z,4.37
2018-06-13T06:12:21.761Z,4.50
2018-06-13T06:14:50.393Z,4.05
2018-06-13T06:17:19.078Z,4.78
2018-06-13T06:19:47.735Z,5.65
2018-06-13T06:22:16.428Z,3.87
2018-06-13T06:24:45.154Z,5.12
2018-06-13T06:27:13.837Z,4.05
2018-06-13T06:29:42.472Z,3.47
2018-06-13T06:32:11.163Z,3.20
2018-06-13T06:34:39.796Z,3.00
2018-06-13T06:37:08.412Z,2.85
2018-06-13T06:39:36.990Z,3.50
2018-06-13T06:42:05.979Z,2.70
2018-06-13T06:44:34.625Z,2.90
2018-06-13T06:47:03.305Z,3.22
2018-06-13T06:49:31.908Z,2.60
2018-06-13T06:52:01.046Z,2.55
2018-06-13T06:54:29.688Z,2.98
2018-06-13T06:56:58.286Z,3.00
2018-06-13T06:59:27.027Z,3.42
2018-06-13T07:01:55.661Z,2.90
2018-06-13T07:04:24.280Z,2.90
2018-06-13T07:06:52.925Z,2.10
2018-06-13T07:09:21.598Z,2.47
2018-06-13T07:11:50.242Z,3.80
2018-06-13T07:14:18.916Z,4.00
2018-06-13T07:16:47.520Z,2.33
2018-06-13T07:19:16.198Z,2.70
2018-06-13T07:21:44.913Z,2.60
2018-06-13T07:24:13.878Z,2.20
2018-06-13T07:26:42.562Z,3.12
2018-06-13T07:29:11.161Z,2.05
2018-06-13T07:31:39.787Z,1.90
2018-06-13T07:34:08.397Z,2.20
2018-06-13T07:36:37.044Z,2.33
2018-06-13T07:39:09.285Z,1.90
2018-06-13T07:41:38.350Z,2.45
2018-06-13T07:44:06.999Z,2.20
2018-06-13T07:46:35.667Z,2.43
2018-06-13T07:49:04.290Z,1.77
2018-06-13T07:51:33.068Z,2.45
2018-06-13T07:54:01.685Z,2.27
2018-06-13T07:56:30.683Z,2.50
2018-06-13T07:58:59.321Z,2.10
2018-06-13T08:01:28.053Z,2.10
2018-06-13T08:03:56.914Z,2.85
2018-06-13T08:06:25.548Z,1.87
2018-06-13T08:08:54.168Z,1.80
2018-06-13T08:11:22.797Z,2.80
2018-06-13T08:13:51.399Z,2.10
2018-06-13T08:16:20.026Z,2.42
2018-06-13T08:18:48.589Z,2.10
2018-06-13T08:21:17.161Z,1.70
2018-06-13T08:23:45.771Z,2.05
2018-06-13T08:26:14.427Z,2.10
2018-06-13T08:28:43.154Z,2.30
2018-06-13T08:31:12.693Z,2.00
2018-06-13T08:33:41.386Z,2.87
2018-06-13T08:36:09.910Z,1.77
2018-06-13T08:38:38.608Z,2.15
2018-06-13T08:41:07.265Z,1.77
2018-06-13T08:43:35.859Z,2.47
2018-06-13T08:46:04.399Z,1.50
2018-06-13T08:48:33.136Z,2.47
2018-06-13T08:51:01.765Z,2.22
2018-06-13T08:53:30.567Z,3.20
2018-06-13T08:55:59.240Z,1.90
2018-06-13T08:58:27.851Z,2.37
2018-06-13T09:00:56.526Z,2.27
2018-06-13T09:03:25.161Z,2.20
2018-06-13T09:05:53.826Z,2.25
2018-06-13T09:08:22.444Z,1.20
2018-06-13T09:10:51.034Z,2.50
2018-06-13T09:13:19.690Z,2.30
2018-06-13T09:15:48.365Z,2.20
2018-06-13T09:18:16.955Z,1.60
2018-06-13T09:20:45.588Z,1.83
2018-06-13T09:23:14.456Z,2.10
2018-06-13T09:25:43.037Z,1.70
2018-06-13T09:28:11.734Z,1.90
2018-06-13T09:30:40.303Z,1.40
2018-06-13T09:33:08.955Z,1.33
2018-06-13T09:35:37.542Z,1.00
2018-06-13T09:38:06.181Z,3.07
2018-06-13T09:40:34.871Z,1.37
2018-06-13T09:43:03.585Z,1.57
2018-06-13T09:45:32.884Z,1.30
2018-06-13T09:48:01.481Z,1.50
2018-06-13T09:50:30.063Z,1.50
2018-06-13T09:52:58.655Z,1.47
2018-06-13T09:55:27.254Z,1.80
2018-06-13T09:57:55.852Z,1.60
2018-06-13T10:00:29.851Z,1.97
2018-06-13T10:02:58.494Z,1.83
2018-06-13T10:05:27.101Z,1.63
2018-06-13T10:07:55.650Z,1.57
2018-06-13T10:10:24.337Z,1.30
2018-06-13T10:12:52.918Z,1.73
2018-06-13T10:15:21.215Z,1.53
2018-06-13T10:17:49.826Z,1.60
2018-06-13T10:20:18.467Z,1.20
2018-06-13T10:22:47.068Z,1.30
2018-06-13T10:25:15.733Z,1.67
2018-06-13T10:27:44.309Z,1.60
2018-06-13T10:30:12.871Z,1.90
2018-06-13T10:32:41.527Z,1.67
2018-06-13T10:35:11.684Z,1.30
2018-06-13T10:37:40.256Z,1.90
2018-06-13T10:40:08.943Z,1.57
2018-06-13T10:42:37.600Z,1.93
2018-06-13T10:45:06.280Z,2.23
2018-06-13T10:47:34.910Z,1.57
2018-06-13T10:50:03.592Z,2.23
2018-06-13T10:52:32.160Z,1.57
2018-06-13T10:55:00.774Z,2.20
2018-06-13T10:57:29.334Z,1.97
2018-06-13T10:59:57.989Z,1.80
2018-06-13T11:02:26.605Z,1.83
2018-06-13T11:04:55.205Z,1.60
2018-06-13T11:07:23.806Z,2.03
2018-06-13T11:09:52.380Z,1.67
2018-06-13T11:12:21.046Z,2.20
2018-06-13T11:14:49.658Z,1.90
2018-06-13T11:17:18.210Z,2.20
2018-06-13T11:19:46.866Z,1.77
2018-06-13T11:22:15.466Z,4.53
2018-06-13T11:24:44.102Z,1.77
2018-06-13T11:27:12.712Z,2.30
2018-06-13T11:29:41.359Z,1.80
2018-06-13T11:32:09.895Z,2.43
2018-06-13T11:34:38.589Z,1.90
2018-06-13T11:37:07.253Z,2.10
2018-06-13T11:39:35.938Z,1.93
2018-06-13T11:42:04.621Z,2.43
2018-06-13T11:44:33.256Z,2.43
2018-06-13T11:47:01.871Z,2.03
2018-06-13T11:49:30.483Z,1.87
2018-06-13T11:51:59.090Z,2.80
2018-06-13T11:54:27.787Z,2.33
2018-06-13T11:56:56.419Z,2.27
2018-06-13T11:59:25.066Z,2.00
2018-06-13T12:01:54.537Z,2.40
2018-06-13T12:04:23.261Z,2.07
2018-06-13T12:06:51.949Z,1.70
2018-06-13T12:09:20.702Z,1.70
2018-06-13T12:11:49.325Z,1.67
2018-06-13T12:14:17.977Z,1.53
2018-06-13T12:16:46.664Z,2.30
2018-06-13T12:19:15.337Z,1.73
2018-06-13T12:21:43.957Z,3.40
2018-06-13T12:24:12.592Z,1.83
2018-06-13T12:26:41.368Z,2.00
2018-06-13T12:29:09.992Z,1.93
2018-06-13T12:31:39.047Z,2.40
2018-06-13T12:34:07.757Z,1.83
2018-06-13T12:36:36.408Z,1.30
2018-06-13T12:39:07.789Z,2.23
2018-06-13T12:41:36.402Z,2.13
2018-06-13T12:44:05.411Z,2.00
2018-06-13T12:46:34.144Z,1.97
2018-06-13T12:49:02.831Z,1.20
2018-06-13T12:51:31.669Z,1.63
2018-06-13T12:54:00.696Z,1.63
2018-06-13T12:56:29.344Z,1.80
2018-06-13T12:58:58.147Z,2.27
2018-06-13T13:01:26.846Z,1.90
2018-06-13T13:03:55.409Z,1.80
2018-06-13T13:06:24.067Z,1.73
2018-06-13T13:08:52.714Z,1.67
2018-06-13T13:11:21.333Z,2.10
2018-06-13T13:13:50.094Z,2.60
2018-06-13T13:16:18.831Z,1.20
2018-06-13T13:18:47.487Z,1.70
2018-06-13T13:21:16.094Z,2.67
2018-06-13T13:23:44.755Z,1.93
2018-06-13T13:26:13.586Z,6.37
2018-06-13T13:28:42.251Z,2.00
2018-06-13T13:31:12.566Z,2.40
2018-06-13T13:33:41.146Z,1.63
2018-06-13T13:36:09.796Z,2.37
2018-06-13T13:38:38.411Z,1.63
2018-06-13T13:41:07.061Z,1.50
2018-06-13T13:43:35.666Z,2.33
2018-06-13T13:46:04.364Z,1.73
2018-06-13T13:48:32.925Z,1.63
2018-06-13T13:51:01.547Z,2.07
2018-06-13T13:53:30.237Z,2.80
2018-06-13T13:55:58.851Z,1.70
2018-06-13T13:58:27.591Z,1.50
2018-06-13T14:00:56.274Z,1.50
2018-06-13T14:03:24.989Z,1.77
2018-06-13T14:05:53.588Z,1.37
2018-06-13T14:08:22.173Z,1.87
2018-06-13T14:10:50.855Z,1.83
2018-06-13T14:13:19.470Z,2.13
2018-06-13T14:15:48.290Z,1.70
2018-06-13T14:18:16.974Z,2.13
2018-06-13T14:20:45.591Z,1.57
2018-06-13T14:23:14.159Z,2.70
2018-06-13T14:25:42.808Z,1.43
2018-06-13T14:28:11.404Z,1.87
2018-06-13T14:30:40.219Z,1.27
2018-06-13T14:33:08.931Z,1.50
2018-06-13T14:35:37.606Z,1.63
2018-06-13T14:38:06.175Z,1.90
2018-06-13T14:40:34.805Z,1.80
2018-06-13T14:43:03.439Z,1.17
2018-06-13T14:45:32.095Z,1.20
2018-06-13T14:48:00.707Z,1.10
2018-06-13T14:50:29.369Z,1.17
2018-06-13T14:52:58.006Z,1.80
2018-06-13T14:55:26.751Z,1.83
2018-06-13T14:57:55.359Z,1.43
2018-06-13T15:00:23.958Z,2.00
2018-06-13T15:02:52.585Z,1.77
2018-06-13T15:05:21.190Z,1.93
2018-06-13T15:07:49.904Z,2.33
2018-06-13T15:10:18.513Z,2.17
2018-06-13T15:12:47.171Z,1.60
2018-06-13T15:15:15.753Z,1.47
2018-06-13T15:17:44.396Z,2.83
2018-06-13T15:20:13.984Z,2.47
2018-06-13T15:22:42.620Z,1.70
2018-06-13T15:25:11.382Z,1.70
2018-06-13T15:27:40.104Z,1.80
2018-06-13T15:30:08.749Z,2.20
2018-06-13T15:32:37.331Z,1.80
2018-06-13T15:35:05.962Z,2.80
2018-06-13T15:37:34.645Z,1.93
2018-06-13T15:40:03.325Z,1.97
2018-06-13T15:42:31.994Z,1.93
2018-06-13T15:45:00.651Z,2.80
2018-06-13T15:47:29.381Z,2.30
2018-06-13T15:49:58.069Z,2.07
2018-06-13T15:52:26.796Z,2.47
2018-06-13T15:54:55.562Z,2.33
2018-06-13T15:57:24.249Z,2.60
2018-06-13T15:59:53.027Z,3.03
2018-06-13T16:02:21.637Z,2.07
2018-06-13T16:04:50.433Z,2.20
2018-06-13T16:07:19.195Z,2.27
2018-06-13T16:09:47.815Z,2.17
2018-06-13T16:12:16.841Z,1.30
2018-06-13T16:14:45.477Z,1.63
2018-06-13T16:17:14.118Z,2.60
2018-06-13T16:19:42.822Z,1.40
2018-06-13T16:22:11.469Z,1.57
2018-06-13T16:24:40.263Z,1.83
2018-06-13T16:27:08.934Z,1.83
2018-06-13T16:29:37.563Z,1.70
2018-06-13T16:32:06.266Z,3.57
2018-06-13T16:34:34.957Z,2.03
2018-06-13T16:37:04.622Z,1.67
2018-06-13T16:39:33.329Z,2.43
2018-06-13T16:42:01.929Z,1.93
2018-06-13T16:44:30.589Z,1.83
2018-06-13T16:46:59.305Z,2.47
2018-06-13T16:49:28.238Z,2.07
2018-06-13T16:51:57.962Z,2.77
2018-06-13T16:54:38.265Z,3.00
2018-06-13T16:57:06.882Z,1.70
2018-06-13T16:59:35.465Z,1.57
2018-06-13T17:02:04.136Z,2.67
2018-06-13T17:04:32.760Z,1.77
2018-06-13T17:07:01.432Z,1.90
2018-06-13T17:09:30.041Z,3.13
2018-06-13T17:11:58.663Z,3.10
2018-06-13T17:14:27.311Z,2.80
2018-06-13T17:16:56.109Z,1.50
2018-06-13T17:19:25.350Z,1.93
2018-06-13T17:21:54.005Z,1.73
2018-06-13T17:24:23.770Z,2.37
2018-06-13T17:26:52.467Z,1.90
2018-06-13T17:29:21.068Z,1.90
2018-06-13T17:31:49.753Z,2.60
2018-06-13T17:34:18.369Z,1.70
2018-06-13T17:36:47.022Z,2.30
2018-06-13T17:39:15.614Z,2.17
2018-06-13T17:41:44.704Z,1.40
2018-06-13T17:44:13.394Z,2.03
2018-06-13T17:46:42.055Z,1.53
2018-06-13T17:49:10.823Z,2.90
2018-06-13T17:51:39.466Z,3.43
2018-06-13T17:54:08.102Z,1.93
2018-06-13T17:56:36.359Z,1.60
2018-06-13T17:59:05.329Z,2.33
2018-06-13T18:01:33.995Z,1.87
2018-06-13T18:04:02.660Z,2.30
2018-06-13T18:06:31.292Z,1.83
2018-06-13T18:08:59.912Z,1.97
2018-06-13T18:11:28.944Z,2.30
2018-06-13T18:13:57.528Z,2.10
2018-06-13T18:16:26.236Z,1.90
2018-06-13T18:18:55.308Z,3.30
2018-06-13T18:21:23.902Z,2.63
2018-06-13T18:23:52.532Z,2.27
2018-06-13T18:26:20.824Z,2.63
2018-06-13T18:28:49.439Z,2.80
2018-06-13T18:31:18.129Z,2.67
2018-06-13T18:33:46.950Z,3.20
2018-06-13T18:36:15.752Z,2.90
2018-06-13T18:38:44.579Z,3.10
2018-06-13T18:41:13.716Z,2.33
2018-06-13T18:43:42.393Z,2.20
2018-06-13T18:46:11.130Z,3.07
2018-06-13T18:48:39.700Z,2.50
2018-06-13T18:51:08.365Z,2.40
2018-06-13T18:53:37.034Z,1.60
2018-06-13T18:56:05.862Z,2.37
2018-06-13T18:58:35.368Z,2.60
2018-06-13T19:01:04.044Z,2.50
2018-06-13T19:03:32.691Z,2.37
2018-06-13T19:06:01.393Z,2.57
2018-06-13T19:08:30.111Z,2.80
2018-06-13T19:10:59.591Z,2.77
2018-06-13T19:13:28.243Z,2.53
2018-06-13T19:15:56.953Z,3.43
2018-06-13T19:18:27.495Z,2.67
2018-06-13T19:20:56.191Z,2.60
2018-06-13T19:23:24.944Z,2.50
2018-06-13T19:25:53.583Z,2.40
2018-06-13T19:28:22.227Z,1.90
2018-06-13T19:30:50.909Z,3.03
2018-06-13T19:33:19.619Z,3.00
2018-06-13T19:35:48.382Z,2.83
2018-06-13T19:38:17.068Z,3.27
2018-06-13T19:40:45.689Z,3.00
2018-06-13T19:43:19.628Z,2.60
2018-06-13T19:45:48.255Z,2.27
2018-06-13T19:48:22.045Z,2.93
2018-06-13T19:50:50.614Z,2.30
2018-06-13T19:53:24.451Z,1.90
2018-06-13T19:55:58.275Z,3.60
2018-06-13T19:58:27.021Z,2.90
2018-06-13T20:00:55.727Z,3.00
2018-06-13T20:03:29.839Z,2.87
2018-06-13T20:05:58.492Z,2.97
2018-06-13T20:08:27.142Z,8.30
2018-06-13T20:10:56.222Z,3.00
2018-06-13T20:13:30.132Z,3.47
2018-06-13T20:16:04.228Z,2.60
2018-06-13T20:18:38.346Z,2.93
2018-06-13T20:21:08.424Z,3.43
2018-06-13T20:23:37.595Z,3.67
2018-06-13T20:26:11.512Z,3.03
2018-06-13T20:28:45.521Z,4.00
2018-06-13T20:31:20.938Z,2.73
2018-06-13T20:33:49.614Z,2.80
2018-06-13T20:36:18.397Z,3.10
2018-06-13T20:38:47.170Z,2.60
2018-06-13T20:41:16.355Z,3.77
2018-06-13T20:43:45.169Z,3.10
2018-06-13T20:46:13.763Z,3.00
2018-06-13T20:48:43.570Z,2.53
2018-06-13T20:51:12.275Z,3.97
2018-06-13T20:53:40.878Z,3.50
2018-06-13T20:56:09.570Z,3.33
2018-06-13T20:58:38.281Z,3.77
2018-06-13T21:01:07.047Z,3.40
2018-06-13T21:03:35.704Z,3.70
2018-06-13T21:06:04.397Z,3.13
2018-06-13T21:08:32.992Z,2.90
2018-06-13T21:11:01.613Z,3.10
2018-06-13T21:13:30.292Z,3.63
2018-06-13T21:15:58.922Z,4.10
2018-06-13T21:18:27.549Z,3.30
2018-06-13T21:20:56.120Z,3.10
2018-06-13T21:23:24.745Z,3.40
2018-06-13T21:25:53.351Z,3.07
2018-06-13T21:28:21.947Z,3.20
2018-06-13T21:30:50.548Z,2.97
2018-06-13T21:33:19.270Z,3.00
2018-06-13T21:35:48.475Z,3.20
2018-06-13T21:38:17.075Z,3.93
2018-06-13T21:40:45.748Z,4.50
2018-06-13T21:43:14.342Z,4.03
2018-06-13T21:45:42.967Z,4.33
2018-06-13T21:48:11.559Z,3.90
2018-06-13T21:50:40.150Z,4.87
2018-06-13T21:53:08.801Z,4.17
2018-06-13T21:55:37.422Z,4.75
2018-06-13T21:58:06.140Z,4.17
2018-06-13T22:00:41.410Z,4.45
2018-06-13T22:03:10.214Z,5.08
2018-06-13T22:05:38.916Z,4.30
2018-06-13T22:08:07.599Z,5.05
2018-06-13T22:10:36.342Z,5.45
2018-06-13T22:13:04.960Z,6.37
2018-06-13T22:15:33.720Z,5.45
2018-06-13T22:18:02.655Z,5.33
2018-06-13T22:20:31.239Z,5.17
2018-06-13T22:22:59.887Z,6.00
2018-06-13T22:25:28.460Z,5.92
2018-06-13T22:27:57.104Z,5.15
2018-06-13T22:30:25.916Z,5.78
2018-06-13T22:32:55.383Z,5.70
2018-06-13T22:35:24.048Z,5.62
2018-06-13T22:37:53.401Z,5.97
2018-06-13T22:40:22.084Z,5.42
2018-06-13T22:42:50.782Z,5.37
2018-06-13T22:45:26.098Z,5.55
2018-06-13T22:47:55.491Z,7.08
2018-06-13T22:50:24.165Z,5.92
2018-06-13T22:52:52.771Z,7.10
2018-06-13T22:55:21.454Z,6.33
2018-06-13T22:57:50.119Z,6.00
2018-06-13T23:00:33.373Z,5.92
2018-06-13T23:03:01.970Z,6.00
2018-06-13T23:05:30.704Z,5.35
2018-06-13T23:07:59.351Z,6.10
2018-06-13T23:10:28.159Z,5.50
2018-06-13T23:12:56.955Z,7.85
2018-06-13T23:15:25.591Z,6.10
2018-06-13T23:17:54.196Z,7.40
2018-06-13T23:20:22.779Z,6.33
2018-06-13T23:22:51.339Z,7.33
2018-06-13T23:25:19.970Z,7.55
2018-06-13T23:27:48.604Z,6.17
2018-06-13T23:30:17.291Z,6.40
2018-06-13T23:32:45.928Z,5.97
2018-06-13T23:35:14.565Z,5.45
2018-06-13T23:37:43.180Z,6.85
2018-06-13T23:40:11.780Z,6.40
2018-06-13T23:42:40.404Z,6.75
2018-06-13T23:45:09.015Z,6.37
2018-06-13T23:47:37.690Z,7.20
2018-06-13T23:50:06.467Z,7.10
2018-06-13T23:52:35.163Z,6.05
2018-06-13T23:55:03.862Z,7.05
2018-06-13T23:57:32.459Z,6.53
